Saint Helena, California
Current Conditions -  °F | °C
As of 4:53 PM on Monday 20 Oct 2014 (Local Time) from KSTS Reporting Station
Broken Clouds Broken Clouds  
Wind Chill: 67°   Ceiling: 6000
Heat Index: 67°   Visibility: 10mi
Dew Point: 51°   Wind: 12mph
Humidity: 57%   Direction: 240°WSW
Pressure: 29.94"   Gusts: NA
Location:  38.51°N, 122.47°W
Report Text: KSTS 202353Z 24010KT 10SM BKN060 19/11 A2994 RMK AO2 SLP132 T01940106 10217 20172 53003
Loading
Personal Weather Stations






























Interactive Weather Map
Tropical Storm Tracking
New forecast layout! Learn more

10-Day Weather Forecast

Advertisements
Track Severe Weather on mobile